Maldives Meteorological Service

SYNOP

Station Code SYNOP
43555
AAXX 22124 43555 12468 30910 10313 20249 30095 40097 60002 83201 333 10328 58001 83818=
43533
AAXX 22124 43533 12460 20506 10314 20246 30098 40100 60002 82201 333 10334 58002 82818=
43577
AAXX 22124 43577 12465 20705 10307 20252 30097 40099 60002 81201 333 10321 58004 81818=
43588
AAXX 22124 43588 11465 40903 10308 20259 30097 40098 69952 70380 83232 333 10323 58007 83818=
43599
AAXX 22124 43599 12462 40904 10307 20247 30097 40099 60002 82201 333 10325 58019 82818=
Last Updated : 2019-03-22 16:59:56